Time,TemperatureF,DewpointF,PressureIn,WindDirection,WindDirectionDegrees,WindSpeedMPH,WindSpeedGustMPH,Humidity,HourlyPrecipIn,Conditions,Clouds,dailyrainin,SoftwareType,DateUTC
2013-05-08 00:03:00,61.2,24.1,29.91,SW,215,0.0,0.0,24,0.00,,,0.00,WeatherCatV1.12B45,2013-05-08 07:03:00,
2013-05-08 00:08:00,61.3,24.2,29.91,SE,136,0.0,0.0,24,0.00,,,0.00,WeatherCatV1.12B45,2013-05-08 07:08:00,
2013-05-08 00:13:00,61.9,24.7,29.91,SSE,161,0.0,2.7,24,0.00,,,0.00,WeatherCatV1.12B45,2013-05-08 07:13:00,
2013-05-08 00:18:00,62.4,25.2,29.91,ESE,121,0.0,0.0,24,0.00,,,0.00,WeatherCatV1.12B45,2013-05-08 07:18:00,
2013-05-08 00:23:00,63.0,22.4,29.91,SE,146,0.0,0.0,21,0.00,,,0.00,WeatherCatV1.12B45,2013-05-08 07:23:00,
2013-05-08 00:28:00,62.8,22.3,29.91,SE,146,0.0,0.0,21,0.00,,,0.00,WeatherCatV1.12B45,2013-05-08 07:28:00,
2013-05-08 00:33:00,62.6,22.1,29.91,SE,146,0.0,0.0,21,0.00,,,0.00,WeatherCatV1.12B45,2013-05-08 07:33:00,
2013-05-08 00:38:00,62.4,22.0,29.91,SE,146,0.0,0.0,21,0.00,,,0.00,WeatherCatV1.12B45,2013-05-08 07:38:00,
2013-05-08 00:43:00,62.1,21.7,29.91,SE,146,0.0,0.0,21,0.00,,,0.00,WeatherCatV1.12B45,2013-05-08 07:43:00,
2013-05-08 00:49:00,62.1,21.7,29.91,SE,146,0.0,0.0,21,0.00,,,0.00,WeatherCatV1.12B45,2013-05-08 07:49:00,
2013-05-08 00:54:00,61.9,24.7,29.91,SE,146,0.0,0.0,24,0.00,,,0.00,WeatherCatV1.12B45,2013-05-08 07:54:00,
2013-05-08 00:59:00,61.3,24.2,29.91,SE,146,0.0,0.0,24,0.00,,,0.00,WeatherCatV1.12B45,2013-05-08 07:59:00,
2013-05-08 01:04:00,60.4,23.5,29.94,SE,146,0.0,0.0,24,0.00,,,0.00,WeatherCatV1.12B45,2013-05-08 08:04:00,
2013-05-08 01:09:00,60.3,23.3,29.94,SE,146,0.0,0.0,24,0.00,,,0.00,WeatherCatV1.12B45,2013-05-08 08:09:00,
2013-05-08 01:14:00,59.7,22.9,29.94,SE,146,0.0,0.0,24,0.00,,,0.00,WeatherCatV1.12B45,2013-05-08 08:14:00,
2013-05-08 01:19:00,59.0,23.2,29.94,SE,146,0.0,0.0,25,0.00,,,0.00,WeatherCatV1.12B45,2013-05-08 08:19:00,
2013-05-08 01:28:00,57.9,23.2,29.94,SE,146,0.0,0.0,26,0.00,,,0.00,WeatherCatV1.12B45,2013-05-08 08:28:00,
2013-05-08 01:33:00,57.4,24.6,29.94,SE,146,0.0,0.0,28,0.00,,,0.00,WeatherCatV1.12B45,2013-05-08 08:33:00,
2013-05-08 01:38:00,56.7,24.8,29.94,West,263,0.0,0.0,29,0.00,,,0.00,WeatherCatV1.12B45,2013-05-08 08:38:00,
2013-05-08 01:43:00,55.9,27.3,29.94,NE,47,0.0,0.0,33,0.00,,,0.00,WeatherCatV1.12B45,2013-05-08 08:43:00,
2013-05-08 01:48:00,55.4,28.2,29.94,NE,47,0.0,3.6,35,0.00,,,0.00,WeatherCatV1.12B45,2013-05-08 08:48:00,
2013-05-08 01:53:00,54.7,28.3,29.94,NE,47,0.0,0.0,36,0.00,,,0.00,WeatherCatV1.12B45,2013-05-08 08:53:00,
2013-05-08 01:58:00,54.1,28.4,29.94,NE,47,0.0,0.0,37,0.00,,,0.00,WeatherCatV1.12B45,2013-05-08 08:58:00,
2013-05-08 02:03:00,53.8,28.8,29.94,NE,47,0.0,0.0,38,0.00,,,0.00,WeatherCatV1.12B45,2013-05-08 09:03:00,
2013-05-08 02:08:00,53.6,29.3,29.94,NE,47,0.0,0.0,39,0.00,,,0.00,WeatherCatV1.12B45,2013-05-08 09:08:00,
2013-05-08 02:13:00,53.2,28.9,29.94,NE,47,0.0,0.0,39,0.00,,,0.00,WeatherCatV1.12B45,2013-05-08 09:13:00,
2013-05-08 02:18:00,53.2,29.5,29.94,NE,47,0.0,0.0,40,0.00,,,0.00,WeatherCatV1.12B45,2013-05-08 09:18:00,
2013-05-08 02:23:00,53.2,29.5,29.94,NE,47,0.0,0.0,40,0.00,,,0.00,WeatherCatV1.12B45,2013-05-08 09:23:00,
2013-05-08 02:28:00,53.2,29.5,29.94,NE,47,0.0,0.0,40,0.00,,,0.00,WeatherCatV1.12B45,2013-05-08 09:28:00,
2013-05-08 02:33:00,53.6,29.3,29.94,NE,47,0.0,0.0,39,0.00,,,0.00,WeatherCatV1.12B45,2013-05-08 09:33:00,
2013-05-08 02:38:00,53.8,28.8,29.94,NE,47,0.0,0.0,38,0.00,,,0.00,WeatherCatV1.12B45,2013-05-08 09:38:00,
2013-05-08 02:43:00,54.1,28.4,29.94,NE,47,0.0,0.0,37,0.00,,,0.00,WeatherCatV1.12B45,2013-05-08 09:43:00,
2013-05-08 02:48:00,54.5,28.8,29.94,NE,47,0.0,0.0,37,0.00,,,0.00,WeatherCatV1.12B45,2013-05-08 09:48:00,
2013-05-08 02:53:00,54.5,28.8,29.94,NE,47,0.0,0.0,37,0.00,,,0.00,WeatherCatV1.12B45,2013-05-08 09:53:00,
2013-05-08 02:58:00,54.5,28.8,29.94,NE,47,0.0,0.0,37,0.00,,,0.00,WeatherCatV1.12B45,2013-05-08 09:58:00,
2013-05-08 03:03:00,54.3,28.6,29.94,NE,47,0.0,0.0,37,0.00,,,0.00,WeatherCatV1.12B45,2013-05-08 10:03:00,
2013-05-08 03:08:00,54.0,28.3,29.94,NE,47,0.0,0.0,37,0.00,,,0.00,WeatherCatV1.12B45,2013-05-08 10:08:00,
2013-05-08 03:13:00,53.8,28.1,29.94,NE,47,0.0,0.0,37,0.00,,,0.00,WeatherCatV1.12B45,2013-05-08 10:13:00,
2013-05-08 03:18:00,53.8,28.1,29.94,NE,47,0.0,0.0,37,0.00,,,0.00,WeatherCatV1.12B45,2013-05-08 10:18:00,
2013-05-08 03:23:00,53.6,28.0,29.94,NE,47,0.0,0.0,37,0.00,,,0.00,WeatherCatV1.12B45,2013-05-08 10:23:00,
2013-05-08 03:28:00,53.6,27.3,29.94,NE,47,0.0,0.0,36,0.00,,,0.00,WeatherCatV1.12B45,2013-05-08 10:28:00,
2013-05-08 03:33:00,53.8,28.1,29.94,NE,47,0.0,0.0,37,0.00,,,0.00,WeatherCatV1.12B45,2013-05-08 10:33:00,
2013-05-08 03:38:00,53.8,28.1,29.94,NE,47,0.0,0.0,37,0.00,,,0.00,WeatherCatV1.12B45,2013-05-08 10:38:00,
2013-05-08 03:43:00,53.8,28.1,29.94,NE,47,0.0,0.0,37,0.00,,,0.00,WeatherCatV1.12B45,2013-05-08 10:43:00,
2013-05-08 03:48:00,53.4,28.5,29.94,NE,47,0.0,0.0,38,0.00,,,0.00,WeatherCatV1.12B45,2013-05-08 10:48:00,
2013-05-08 03:53:00,53.1,28.8,29.94,NE,47,0.0,0.0,39,0.00,,,0.00,WeatherCatV1.12B45,2013-05-08 10:53:00,
2013-05-08 03:58:00,52.5,28.3,29.94,NE,47,0.0,0.0,39,0.00,,,0.00,WeatherCatV1.12B45,2013-05-08 10:58:00,
2013-05-08 04:03:00,52.2,28.6,29.94,NE,47,0.0,0.0,40,0.00,,,0.00,WeatherCatV1.12B45,2013-05-08 11:03:00,
2013-05-08 04:08:00,51.6,28.7,29.94,NE,47,0.0,0.0,41,0.00,,,0.00,WeatherCatV1.12B45,2013-05-08 11:08:00,
2013-05-08 04:13:00,51.6,28.7,29.94,NE,47,0.0,0.0,41,0.00,,,0.00,WeatherCatV1.12B45,2013-05-08 11:13:00,
2013-05-08 04:18:00,51.4,28.5,29.94,NE,47,0.0,0.0,41,0.00,,,0.00,WeatherCatV1.12B45,2013-05-08 11:18:00,
2013-05-08 04:23:00,51.4,29.1,29.94,NE,47,0.0,0.0,42,0.00,,,0.00,WeatherCatV1.12B45,2013-05-08 11:23:00,
2013-05-08 04:28:00,51.3,28.4,29.94,NE,47,0.0,0.0,41,0.00,,,0.00,WeatherCatV1.12B45,2013-05-08 11:28:00,
2013-05-08 04:33:00,51.1,28.2,29.97,NE,47,0.0,0.0,41,0.00,,,0.00,WeatherCatV1.12B45,2013-05-08 11:33:00,
2013-05-08 04:38:00,50.9,28.0,29.97,NE,47,0.0,0.0,41,0.00,,,0.00,WeatherCatV1.12B45,2013-05-08 11:38:00,
2013-05-08 04:43:00,50.7,27.9,29.97,NE,47,0.0,0.0,41,0.00,,,0.00,WeatherCatV1.12B45,2013-05-08 11:43:00,
2013-05-08 04:48:00,50.5,27.7,29.97,NE,47,0.0,0.0,41,0.00,,,0.00,WeatherCatV1.12B45,2013-05-08 11:48:00,
2013-05-08 04:53:00,50.5,28.3,29.97,NE,47,0.0,0.0,42,0.00,,,0.00,WeatherCatV1.12B45,2013-05-08 11:53:00,
2013-05-08 04:58:00,50.5,28.3,29.97,NE,47,0.0,0.0,42,0.00,,,0.00,WeatherCatV1.12B45,2013-05-08 11:58:00,
2013-05-08 05:03:00,50.4,29.3,29.97,NE,47,0.0,0.0,44,0.00,,,0.00,WeatherCatV1.12B45,2013-05-08 12:03:00,
2013-05-08 05:08:00,49.8,28.8,29.97,NE,47,0.0,0.0,44,0.00,,,0.00,WeatherCatV1.12B45,2013-05-08 12:08:00,
2013-05-08 05:13:00,49.5,28.5,29.97,NE,47,0.0,0.0,44,0.00,,,0.00,WeatherCatV1.12B45,2013-05-08 12:13:00,
2013-05-08 05:18:00,49.1,28.7,29.97,NE,47,0.0,0.0,45,0.00,,,0.00,WeatherCatV1.12B45,2013-05-08 12:18:00,
2013-05-08 05:23:00,48.9,29.1,29.97,NE,47,0.0,0.0,46,0.00,,,0.00,WeatherCatV1.12B45,2013-05-08 12:23:00,
2013-05-08 05:28:00,48.7,29.9,29.97,NE,49,0.0,0.0,48,0.00,,,0.00,WeatherCatV1.12B45,2013-05-08 12:28:00,
2013-05-08 05:33:00,48.9,30.6,29.97,East,96,0.0,0.0,49,0.00,,,0.00,WeatherCatV1.12B45,2013-05-08 12:33:00,
2013-05-08 05:38:00,49.3,30.9,29.97,South,189,0.0,0.0,49,0.00,,,0.00,WeatherCatV1.12B45,2013-05-08 12:38:00,
2013-05-08 05:43:00,49.6,30.8,29.97,South,189,0.0,0.0,48,0.00,,,0.00,WeatherCatV1.12B45,2013-05-08 12:43:00,
2013-05-08 05:48:00,49.5,30.6,29.97,SSE,154,0.0,0.0,48,0.00,,,0.00,WeatherCatV1.12B45,2013-05-08 12:48:00,
2013-05-08 05:53:00,49.6,30.8,29.97,SSE,154,0.0,0.0,48,0.00,,,0.00,WeatherCatV1.12B45,2013-05-08 12:53:00,
2013-05-08 05:58:00,49.8,30.9,29.97,SSE,154,0.0,0.0,48,0.00,,,0.00,WeatherCatV1.12B45,2013-05-08 12:58:00,
2013-05-08 06:03:00,50.0,31.1,29.97,SSE,154,0.0,0.0,48,0.00,,,0.00,WeatherCatV1.12B45,2013-05-08 13:03:00,
2013-05-08 06:08:00,50.2,31.8,29.97,SSE,154,0.0,0.0,49,0.00,,,0.00,WeatherCatV1.12B45,2013-05-08 13:08:00,
2013-05-08 06:13:00,50.4,31.9,29.97,SSE,154,0.0,0.0,49,0.00,,,0.00,WeatherCatV1.12B45,2013-05-08 13:13:00,
2013-05-08 06:18:00,50.7,32.3,29.97,SSE,154,0.0,0.0,49,0.00,,,0.00,WeatherCatV1.12B45,2013-05-08 13:18:00,
2013-05-08 06:23:00,50.9,32.4,29.97,SSE,154,0.0,0.0,49,0.00,,,0.00,WeatherCatV1.12B45,2013-05-08 13:23:00,
2013-05-08 06:28:00,51.1,32.6,29.97,SSE,154,0.0,0.0,49,0.00,,,0.00,WeatherCatV1.12B45,2013-05-08 13:28:00,
2013-05-08 06:33:00,51.1,33.1,29.97,SSE,154,0.0,0.0,50,0.00,,,0.00,WeatherCatV1.12B45,2013-05-08 13:33:00,
2013-05-08 06:37:00,51.1,33.1,29.97,SSE,154,0.0,0.0,50,0.00,,,0.00,WeatherCatV1.12B45,2013-05-08 13:37:00,
2013-05-08 06:42:00,51.4,33.4,29.97,SSE,154,0.0,0.0,50,0.00,,,0.00,WeatherCatV1.12B45,2013-05-08 13:42:00,
2013-05-08 06:47:00,51.6,33.6,29.97,SSE,154,0.0,0.0,50,0.00,,,0.00,WeatherCatV1.12B45,2013-05-08 13:47:00,
2013-05-08 06:52:00,52.2,34.1,29.97,SSE,154,0.0,0.0,50,0.00,,,0.00,WeatherCatV1.12B45,2013-05-08 13:52:00,
2013-05-08 06:57:00,52.7,34.6,29.97,SSE,154,0.0,0.0,50,0.00,,,0.00,WeatherCatV1.12B45,2013-05-08 13:57:00,
2013-05-08 07:02:00,54.0,35.2,29.97,SSE,154,0.0,0.0,49,0.00,,,0.00,WeatherCatV1.12B45,2013-05-08 14:02:00,
2013-05-08 07:07:00,55.2,35.9,29.97,SSE,154,0.0,0.0,48,0.00,,,0.00,WeatherCatV1.12B45,2013-05-08 14:07:00,
2013-05-08 07:12:00,58.8,38.1,29.97,SSE,154,0.0,0.0,46,0.00,,,0.00,WeatherCatV1.12B45,2013-05-08 14:12:00,
2013-05-08 07:17:00,60.4,36.0,29.97,SSE,154,0.0,0.0,40,0.00,,,0.00,WeatherCatV1.12B45,2013-05-08 14:17:00,
2013-05-08 07:22:00,59.7,34.7,29.97,SSE,154,0.0,0.0,39,0.00,,,0.00,WeatherCatV1.12B45,2013-05-08 14:22:00,
2013-05-08 07:27:00,58.8,33.9,29.97,SSE,154,0.0,0.0,39,0.00,,,0.00,WeatherCatV1.12B45,2013-05-08 14:27:00,
2013-05-08 07:32:00,57.7,32.3,30.00,SSE,154,0.0,0.0,38,0.00,,,0.00,WeatherCatV1.12B45,2013-05-08 14:32:00,
2013-05-08 07:37:00,57.2,32.5,30.00,SSE,154,0.0,0.0,39,0.00,,,0.00,WeatherCatV1.12B45,2013-05-08 14:37:00,
2013-05-08 07:42:00,57.0,32.9,30.00,SSE,154,0.0,0.0,40,0.00,,,0.00,WeatherCatV1.12B45,2013-05-08 14:42:00,
2013-05-08 07:47:00,57.2,33.7,30.00,SSE,154,0.0,0.0,41,0.00,,,0.00,WeatherCatV1.12B45,2013-05-08 14:47:00,
2013-05-08 07:52:00,57.4,34.5,30.00,SSE,154,0.0,0.0,42,0.00,,,0.00,WeatherCatV1.12B45,2013-05-08 14:52:00,
2013-05-08 07:57:00,57.7,33.6,30.00,SSE,154,0.0,0.0,40,0.00,,,0.00,WeatherCatV1.12B45,2013-05-08 14:57:00,
2013-05-08 08:02:00,58.3,34.1,30.00,SSE,154,0.0,0.0,40,0.00,,,0.00,WeatherCatV1.12B45,2013-05-08 15:02:00,
2013-05-08 08:07:00,58.8,33.9,30.00,NE,35,0.0,0.0,39,0.00,,,0.00,WeatherCatV1.12B45,2013-05-08 15:07:00,
2013-05-08 08:12:00,59.4,33.8,30.00,NNE,15,2.7,3.6,38,0.00,,,0.00,WeatherCatV1.12B45,2013-05-08 15:12:00,
2013-05-08 08:17:00,62.1,34.8,29.97,NNE,15,0.0,0.0,36,0.00,,,0.00,WeatherCatV1.12B45,2013-05-08 15:17:00,
2013-05-08 08:22:00,64.4,35.4,29.97,NNE,15,0.0,0.0,34,0.00,,,0.00,WeatherCatV1.12B45,2013-05-08 15:22:00,
2013-05-08 08:27:00,66.4,34.8,29.97,NNE,15,0.0,0.0,31,0.00,,,0.00,WeatherCatV1.12B45,2013-05-08 15:27:00,
2013-05-08 08:32:00,68.2,32.0,29.97,NE,49,0.0,0.0,26,0.00,,,0.00,WeatherCatV1.12B45,2013-05-08 15:32:00,
2013-05-08 08:37:00,69.8,32.4,29.97,NE,54,0.0,0.0,25,0.00,,,0.00,WeatherCatV1.12B45,2013-05-08 15:37:00,
2013-05-08 08:42:00,70.7,33.1,29.97,NE,52,0.0,0.0,25,0.00,,,0.00,WeatherCatV1.12B45,2013-05-08 15:42:00,
2013-05-08 08:47:00,71.8,32.0,30.00,NE,40,0.0,4.9,23,0.00,,,0.00,WeatherCatV1.12B45,2013-05-08 15:47:00,
2013-05-08 08:52:00,72.7,31.6,30.00,NE,41,3.1,3.6,22,0.00,,,0.00,WeatherCatV1.12B45,2013-05-08 15:52:00,
2013-05-08 08:57:00,73.8,32.5,30.00,NNE,17,2.2,4.0,22,0.00,,,0.00,WeatherCatV1.12B45,2013-05-08 15:57:00,
2013-05-08 09:02:00,73.8,31.4,30.00,North,8,0.0,3.1,21,0.00,,,0.00,WeatherCatV1.12B45,2013-05-08 16:02:00,
2013-05-08 09:07:00,72.9,31.8,30.00,ESE,106,0.0,0.0,22,0.00,,,0.00,WeatherCatV1.12B45,2013-05-08 16:07:00,
2013-05-08 09:12:00,74.1,31.7,30.00,ESE,113,0.0,0.0,21,0.00,,,0.00,WeatherCatV1.12B45,2013-05-08 16:12:00,
2013-05-08 09:17:00,74.1,31.7,30.00,NE,41,0.0,0.0,21,0.00,,,0.00,WeatherCatV1.12B45,2013-05-08 16:17:00,
2013-05-08 09:22:00,75.6,31.7,30.00,North,353,0.0,0.0,20,0.00,,,0.00,WeatherCatV1.12B45,2013-05-08 16:22:00,
2013-05-08 09:27:00,75.0,32.4,30.00,NNW,339,0.0,2.7,21,0.00,,,0.00,WeatherCatV1.12B45,2013-05-08 16:27:00,
2013-05-08 09:32:00,76.1,29.5,30.00,NW,319,0.0,0.0,18,0.00,,,0.00,WeatherCatV1.12B45,2013-05-08 16:32:00,
2013-05-08 09:37:00,73.6,27.5,30.00,West,279,0.0,0.0,18,0.00,,,0.00,WeatherCatV1.12B45,2013-05-08 16:37:00,
2013-05-08 09:42:00,76.5,29.8,30.00,NE,39,2.7,2.7,18,0.00,,,0.00,WeatherCatV1.12B45,2013-05-08 16:42:00,
2013-05-08 09:47:00,75.7,24.8,30.00,NE,45,2.7,4.0,15,0.00,,,0.00,WeatherCatV1.12B45,2013-05-08 16:47:00,
2013-05-08 09:52:00,75.7,31.8,30.00,South,191,0.0,3.1,20,0.00,,,0.00,WeatherCatV1.12B45,2013-05-08 16:52:00,
2013-05-08 09:57:00,75.0,25.8,30.00,West,268,2.2,4.0,16,0.00,,,0.00,WeatherCatV1.12B45,2013-05-08 16:57:00,
2013-05-08 10:02:00,73.6,24.6,30.00,NNE,26,0.0,3.1,16,0.00,,,0.00,WeatherCatV1.12B45,2013-05-08 17:02:00,
2013-05-08 10:07:00,74.3,25.2,30.00,NE,54,3.1,3.6,16,0.00,,,0.00,WeatherCatV1.12B45,2013-05-08 17:07:00,
2013-05-08 10:12:00,75.0,25.8,30.00,NE,45,2.7,2.7,16,0.00,,,0.00,WeatherCatV1.12B45,2013-05-08 17:12:00,
2013-05-08 10:17:00,76.8,25.7,30.00,NW,322,0.0,0.0,15,0.00,,,0.00,WeatherCatV1.12B45,2013-05-08 17:17:00,
2013-05-08 10:23:00,75.9,24.9,30.00,SSW,205,0.0,0.0,15,0.00,,,0.00,WeatherCatV1.12B45,2013-05-08 17:23:00,
2013-05-08 10:28:00,76.6,25.5,30.00,East,83,2.7,6.3,15,0.00,,,0.00,WeatherCatV1.12B45,2013-05-08 17:28:00,
2013-05-08 10:33:00,77.0,25.8,30.00,ENE,63,0.0,3.6,15,0.00,,,0.00,WeatherCatV1.12B45,2013-05-08 17:33:00,
2013-05-08 10:38:00,77.4,26.1,30.00,South,189,4.0,4.9,15,0.00,,,0.00,WeatherCatV1.12B45,2013-05-08 17:38:00,
2013-05-08 10:43:00,75.9,24.9,30.00,ENE,68,0.0,2.7,15,0.00,,,0.00,WeatherCatV1.12B45,2013-05-08 17:43:00,
2013-05-08 10:48:00,75.6,21.3,30.00,NE,49,2.7,4.9,13,0.00,,,0.00,WeatherCatV1.12B45,2013-05-08 17:48:00,
2013-05-08 10:53:00,75.7,21.4,30.00,ENE,60,0.0,2.2,13,0.00,,,0.00,WeatherCatV1.12B45,2013-05-08 17:53:00,
2013-05-08 10:58:00,76.1,25.1,30.00,ESE,112,2.2,4.0,15,0.00,,,0.00,WeatherCatV1.12B45,2013-05-08 17:58:00,
2013-05-08 11:03:00,76.3,25.2,30.03,ENE,72,0.0,3.1,15,0.00,,,0.00,WeatherCatV1.12B45,2013-05-08 18:03:00,
2013-05-08 11:08:00,75.7,21.4,30.03,SSW,194,0.0,0.0,13,0.00,,,0.00,WeatherCatV1.12B45,2013-05-08 18:08:00,
2013-05-08 11:13:00,76.1,21.7,30.03,ESE,116,0.0,4.0,13,0.00,,,0.00,WeatherCatV1.12B45,2013-05-08 18:13:00,
2013-05-08 11:18:00,76.8,25.7,30.03,SE,126,2.7,8.1,15,0.00,,,0.00,WeatherCatV1.12B45,2013-05-08 18:18:00,
2013-05-08 11:23:00,76.8,22.2,30.03,NW,321,3.6,3.6,13,0.00,,,0.00,WeatherCatV1.12B45,2013-05-08 18:23:00,
2013-05-08 11:28:00,77.4,22.7,30.03,ESE,112,3.1,5.4,13,0.00,,,0.00,WeatherCatV1.12B45,2013-05-08 18:28:00,
2013-05-08 11:33:00,76.6,22.1,30.03,ESE,102,3.1,3.1,13,0.00,,,0.00,WeatherCatV1.12B45,2013-05-08 18:33:00,
2013-05-08 11:38:00,77.2,22.5,30.03,NNE,22,3.6,5.8,13,0.00,,,0.00,WeatherCatV1.12B45,2013-05-08 18:38:00,
2013-05-08 11:43:00,76.8,22.2,30.03,East,81,0.0,0.0,13,0.00,,,0.00,WeatherCatV1.12B45,2013-05-08 18:43:00,
2013-05-08 11:48:00,77.2,22.5,30.00,SSW,195,0.0,0.0,13,0.00,,,0.00,WeatherCatV1.12B45,2013-05-08 18:48:00,
2013-05-08 11:53:00,77.4,22.7,30.00,NNE,20,0.0,0.0,13,0.00,,,0.00,WeatherCatV1.12B45,2013-05-08 18:53:00,
2013-05-08 11:58:00,77.9,23.1,30.00,WSW,244,2.7,4.0,13,0.00,,,0.00,WeatherCatV1.12B45,2013-05-08 18:58:00,
2013-05-08 12:03:00,78.1,23.2,30.00,NW,320,4.0,4.0,13,0.00,,,0.00,WeatherCatV1.12B45,2013-05-08 19:03:00,
2013-05-08 12:08:00,78.3,23.4,30.00,ESE,122,0.0,0.0,13,0.00,,,0.00,WeatherCatV1.12B45,2013-05-08 19:08:00,
2013-05-08 12:13:00,78.1,23.2,30.00,East,93,0.0,0.0,13,0.00,,,0.00,WeatherCatV1.12B45,2013-05-08 19:13:00,
2013-05-08 12:18:00,78.3,23.4,30.00,South,173,0.0,6.3,13,0.00,,,0.00,WeatherCatV1.12B45,2013-05-08 19:18:00,
2013-05-08 12:23:00,78.4,23.5,30.00,South,185,2.7,5.8,13,0.00,,,0.00,WeatherCatV1.12B45,2013-05-08 19:23:00,
2013-05-08 12:28:00,78.3,17.2,30.00,NE,36,2.2,2.2,10,0.00,,,0.00,WeatherCatV1.12B45,2013-05-08 19:28:00,
2013-05-08 12:33:00,78.6,23.7,30.00,SE,128,2.7,5.4,13,0.00,,,0.00,WeatherCatV1.12B45,2013-05-08 19:33:00,
2013-05-08 12:38:00,78.4,23.5,30.00,SSE,155,2.7,4.9,13,0.00,,,0.00,WeatherCatV1.12B45,2013-05-08 19:38:00,
2013-05-08 12:43:00,78.3,23.4,30.00,South,178,2.2,3.6,13,0.00,,,0.00,WeatherCatV1.12B45,2013-05-08 19:43:00,
2013-05-08 12:48:00,78.1,17.1,30.00,East,85,2.7,4.9,10,0.00,,,0.00,WeatherCatV1.12B45,2013-05-08 19:48:00,
2013-05-08 12:53:00,78.6,17.5,30.00,NNW,343,5.4,6.3,10,0.00,,,0.00,WeatherCatV1.12B45,2013-05-08 19:53:00,
2013-05-08 12:58:00,79.3,22.3,30.00,SW,229,4.0,5.8,12,0.00,,,0.00,WeatherCatV1.12B45,2013-05-08 19:58:00,
2013-05-08 13:03:00,79.7,22.6,30.00,South,181,3.1,5.4,12,0.00,,,0.00,WeatherCatV1.12B45,2013-05-08 20:03:00,
2013-05-08 13:08:00,79.7,18.3,30.00,West,261,2.7,3.6,10,0.00,,,0.00,WeatherCatV1.12B45,2013-05-08 20:08:00,
2013-05-08 13:13:00,79.9,18.5,30.00,North,0,0.0,0.0,10,0.00,,,0.00,WeatherCatV1.12B45,2013-05-08 20:13:00,
2013-05-08 13:18:00,80.1,18.6,30.00,WNW,295,0.0,4.5,10,0.00,,,0.00,WeatherCatV1.12B45,2013-05-08 20:18:00,
2013-05-08 13:23:00,80.2,18.7,30.00,SSE,167,2.7,5.8,10,0.00,,,0.00,WeatherCatV1.12B45,2013-05-08 20:23:00,
2013-05-08 13:28:00,80.2,18.7,30.00,SSW,203,2.7,5.8,10,0.00,,,0.00,WeatherCatV1.12B45,2013-05-08 20:28:00,
2013-05-08 13:33:00,80.6,16.6,30.00,West,276,2.7,3.1,9,0.00,,,0.00,WeatherCatV1.12B45,2013-05-08 20:33:00,
2013-05-08 13:38:00,81.0,16.8,30.00,West,274,2.2,3.1,9,0.00,,,0.00,WeatherCatV1.12B45,2013-05-08 20:38:00,
2013-05-08 13:43:00,81.3,17.1,30.00,South,183,0.0,0.0,9,0.00,,,0.00,WeatherCatV1.12B45,2013-05-08 20:43:00,
2013-05-08 13:48:00,81.5,17.2,30.00,North,349,2.7,4.9,9,0.00,,,0.00,WeatherCatV1.12B45,2013-05-08 20:48:00,
2013-05-08 13:53:00,81.9,17.5,30.00,NNW,334,0.0,5.8,9,0.00,,,0.00,WeatherCatV1.12B45,2013-05-08 20:53:00,
2013-05-08 13:58:00,82.0,17.6,30.00,SSE,150,3.1,5.4,9,0.00,,,0.00,WeatherCatV1.12B45,2013-05-08 20:58:00,
2013-05-08 14:03:00,81.5,17.2,30.00,ENE,60,2.2,3.1,9,0.00,,,0.00,WeatherCatV1.12B45,2013-05-08 21:03:00,
2013-05-08 14:08:00,81.7,17.4,30.00,SW,217,3.6,3.6,9,0.00,,,0.00,WeatherCatV1.12B45,2013-05-08 21:08:00,
2013-05-08 14:13:00,82.2,24.5,30.00,NW,306,5.8,5.8,12,0.00,,,0.00,WeatherCatV1.12B45,2013-05-08 21:13:00,
2013-05-08 14:18:00,82.9,23.0,30.00,ESE,111,3.6,4.0,11,0.00,,,0.00,WeatherCatV1.12B45,2013-05-08 21:18:00,
2013-05-08 14:23:00,83.3,18.6,30.00,West,260,3.6,5.8,9,0.00,,,0.00,WeatherCatV1.12B45,2013-05-08 21:23:00,
2013-05-08 14:28:00,83.3,18.6,30.00,South,173,4.0,6.3,9,0.00,,,0.00,WeatherCatV1.12B45,2013-05-08 21:28:00,
2013-05-08 14:33:00,83.7,23.6,30.00,West,271,0.0,0.0,11,0.00,,,0.00,WeatherCatV1.12B45,2013-05-08 21:33:00,
2013-05-08 14:38:00,83.8,19.0,30.00,North,353,2.2,3.6,9,0.00,,,0.00,WeatherCatV1.12B45,2013-05-08 21:38:00,
2013-05-08 14:43:00,84.2,16.5,30.00,NW,308,5.4,5.4,8,0.00,,,0.00,WeatherCatV1.12B45,2013-05-08 21:43:00,
2013-05-08 14:48:00,84.4,16.7,30.00,SE,124,2.7,3.1,8,0.00,,,0.00,WeatherCatV1.12B45,2013-05-08 21:48:00,
2013-05-08 14:53:00,84.7,16.9,30.00,West,265,0.0,3.1,8,0.00,,,0.00,WeatherCatV1.12B45,2013-05-08 21:53:00,
2013-05-08 14:58:00,84.6,16.8,30.00,South,179,2.7,2.7,8,0.00,,,0.00,WeatherCatV1.12B45,2013-05-08 21:58:00,
2013-05-08 15:03:00,84.7,16.9,30.00,NNE,19,0.0,6.3,8,0.00,,,0.00,WeatherCatV1.12B45,2013-05-08 22:03:00,
2013-05-08 15:08:00,84.7,16.9,30.00,NNE,24,3.1,4.0,8,0.00,,,0.00,WeatherCatV1.12B45,2013-05-08 22:08:00,
2013-05-08 15:13:00,84.6,16.8,30.00,SSW,211,3.1,3.6,8,0.00,,,0.00,WeatherCatV1.12B45,2013-05-08 22:13:00,
2013-05-08 15:18:00,84.9,17.1,30.00,SE,134,3.1,3.6,8,0.00,,,0.00,WeatherCatV1.12B45,2013-05-08 22:18:00,
2013-05-08 15:23:00,85.1,17.2,30.00,WSW,248,2.7,4.9,8,0.00,,,0.00,WeatherCatV1.12B45,2013-05-08 22:23:00,
2013-05-08 15:28:00,84.9,17.1,30.00,South,178,5.8,5.8,8,0.00,,,0.00,WeatherCatV1.12B45,2013-05-08 22:28:00,
2013-05-08 15:33:00,84.9,17.1,29.97,WSW,256,2.7,3.1,8,0.00,,,0.00,WeatherCatV1.12B45,2013-05-08 22:33:00,
2013-05-08 15:38:00,84.9,17.1,29.97,WSW,246,2.2,3.6,8,0.00,,,0.00,WeatherCatV1.12B45,2013-05-08 22:38:00,
2013-05-08 15:43:00,85.1,17.2,29.97,NNW,340,4.0,4.0,8,0.00,,,0.00,WeatherCatV1.12B45,2013-05-08 22:43:00,
2013-05-08 15:48:00,85.1,17.2,29.97,SSE,156,2.7,4.0,8,0.00,,,0.00,WeatherCatV1.12B45,2013-05-08 22:48:00,
2013-05-08 15:53:00,85.3,17.3,29.97,SW,233,4.0,4.0,8,0.00,,,0.00,WeatherCatV1.12B45,2013-05-08 22:53:00,
2013-05-08 15:58:00,85.3,17.3,29.97,West,270,0.0,0.0,8,0.00,,,0.00,WeatherCatV1.12B45,2013-05-08 22:58:00,
2013-05-08 16:03:00,85.1,17.2,29.97,West,261,4.0,6.3,8,0.00,,,0.00,WeatherCatV1.12B45,2013-05-08 23:03:00,
2013-05-08 16:08:00,84.6,16.8,29.97,NW,312,5.4,5.4,8,0.00,,,0.00,WeatherCatV1.12B45,2013-05-08 23:08:00,
2013-05-08 16:13:00,83.8,19.0,29.97,North,353,6.3,7.6,9,0.00,,,0.00,WeatherCatV1.12B45,2013-05-08 23:13:00,
2013-05-08 16:18:00,83.1,18.4,29.97,WSW,248,4.9,4.9,9,0.00,,,0.00,WeatherCatV1.12B45,2013-05-08 23:18:00,
2013-05-08 16:23:00,82.6,18.0,29.97,NW,309,6.7,6.7,9,0.00,,,0.00,WeatherCatV1.12B45,2013-05-08 23:23:00,
2013-05-08 16:28:00,81.7,17.4,29.97,NNE,19,0.0,0.0,9,0.00,,,0.00,WeatherCatV1.12B45,2013-05-08 23:28:00,
2013-05-08 16:33:00,81.0,16.8,29.97,NNE,13,3.1,4.0,9,0.00,,,0.00,WeatherCatV1.12B45,2013-05-08 23:33:00,
2013-05-08 16:38:00,81.1,23.7,29.97,WSW,258,3.1,3.1,12,0.00,,,0.00,WeatherCatV1.12B45,2013-05-08 23:38:00,
2013-05-08 16:43:00,81.3,23.9,29.97,SW,224,3.6,4.9,12,0.00,,,0.00,WeatherCatV1.12B45,2013-05-08 23:43:00,
2013-05-08 16:48:00,81.1,23.7,29.97,SW,234,2.7,4.0,12,0.00,,,0.00,WeatherCatV1.12B45,2013-05-08 23:48:00,
2013-05-08 16:53:00,81.1,17.0,29.97,SSW,211,2.7,4.9,9,0.00,,,0.00,WeatherCatV1.12B45,2013-05-08 23:53:00,
2013-05-08 16:58:00,80.4,18.9,29.97,South,183,0.0,0.0,10,0.00,,,0.00,WeatherCatV1.12B45,2013-05-08 23:58:00,
2013-05-08 17:03:00,79.9,18.5,29.97,NNW,333,4.0,4.0,10,0.00,,,0.00,WeatherCatV1.12B45,2013-05-09 00:03:00,
2013-05-08 17:08:00,79.7,18.3,29.97,South,170,2.7,3.1,10,0.00,,,0.00,WeatherCatV1.12B45,2013-05-09 00:08:00,
2013-05-08 17:13:00,79.3,18.0,29.97,SW,225,0.0,5.4,10,0.00,,,0.00,WeatherCatV1.12B45,2013-05-09 00:13:00,
2013-05-08 17:18:00,79.5,22.5,29.97,NNW,328,5.4,5.4,12,0.00,,,0.00,WeatherCatV1.12B45,2013-05-09 00:18:00,
2013-05-08 17:23:00,79.2,17.9,29.97,West,271,3.1,4.0,10,0.00,,,0.00,WeatherCatV1.12B45,2013-05-09 00:23:00,
2013-05-08 17:28:00,79.3,22.3,29.97,ESE,113,0.0,0.0,12,0.00,,,0.00,WeatherCatV1.12B45,2013-05-09 00:28:00,
2013-05-08 17:33:00,79.2,22.2,29.97,South,170,2.7,3.1,12,0.00,,,0.00,WeatherCatV1.12B45,2013-05-09 00:33:00,
2013-05-08 17:38:00,78.8,21.9,29.97,South,186,2.7,3.1,12,0.00,,,0.00,WeatherCatV1.12B45,2013-05-09 00:38:00,
2013-05-08 17:43:00,78.8,21.9,29.97,South,184,4.0,4.0,12,0.00,,,0.00,WeatherCatV1.12B45,2013-05-09 00:43:00,
2013-05-08 17:48:00,78.8,17.6,29.97,SSE,156,4.9,6.3,10,0.00,,,0.00,WeatherCatV1.12B45,2013-05-09 00:48:00,
2013-05-08 17:53:00,78.6,17.5,29.97,SW,214,0.0,3.1,10,0.00,,,0.00,WeatherCatV1.12B45,2013-05-09 00:53:00,
2013-05-08 17:58:00,78.4,17.4,29.97,SW,223,0.0,0.0,10,0.00,,,0.00,WeatherCatV1.12B45,2013-05-09 00:58:00,
2013-05-08 18:03:00,78.3,17.2,29.97,West,278,4.0,4.0,10,0.00,,,0.00,WeatherCatV1.12B45,2013-05-09 01:03:00,
2013-05-08 18:08:00,78.3,17.2,29.97,West,272,0.0,0.0,10,0.00,,,0.00,WeatherCatV1.12B45,2013-05-09 01:08:00,
2013-05-08 18:13:00,78.1,17.1,29.97,West,259,0.0,2.2,10,0.00,,,0.00,WeatherCatV1.12B45,2013-05-09 01:13:00,
2013-05-08 18:18:00,77.7,16.8,29.97,WSW,251,0.0,0.0,10,0.00,,,0.00,WeatherCatV1.12B45,2013-05-09 01:18:00,
2013-05-08 18:23:00,77.7,16.8,29.97,South,186,2.2,4.0,10,0.00,,,0.00,WeatherCatV1.12B45,2013-05-09 01:23:00,
2013-05-08 18:28:00,77.2,22.5,29.97,West,259,0.0,0.0,13,0.00,,,0.00,WeatherCatV1.12B45,2013-05-09 01:28:00,
2013-05-08 18:33:00,76.6,22.1,29.97,West,259,0.0,0.0,13,0.00,,,0.00,WeatherCatV1.12B45,2013-05-09 01:33:00,
2013-05-08 18:38:00,75.9,21.5,29.97,SW,227,0.0,0.0,13,0.00,,,0.00,WeatherCatV1.12B45,2013-05-09 01:38:00,
2013-05-08 18:43:00,75.7,21.4,29.97,SW,216,3.1,3.1,13,0.00,,,0.00,WeatherCatV1.12B45,2013-05-09 01:43:00,
2013-05-08 18:48:00,75.9,21.5,29.97,SSE,166,0.0,3.6,13,0.00,,,0.00,WeatherCatV1.12B45,2013-05-09 01:48:00,
2013-05-08 18:53:00,75.4,21.1,29.97,SSE,168,0.0,0.0,13,0.00,,,0.00,WeatherCatV1.12B45,2013-05-09 01:53:00,
2013-05-08 18:58:00,74.8,25.6,29.97,SSE,168,0.0,0.0,16,0.00,,,0.00,WeatherCatV1.12B45,2013-05-09 01:58:00,
2013-05-08 19:03:00,74.1,25.1,29.97,SW,224,0.0,0.0,16,0.00,,,0.00,WeatherCatV1.12B45,2013-05-09 02:03:00,
2013-05-08 19:08:00,73.6,24.6,29.97,SW,229,0.0,0.0,16,0.00,,,0.00,WeatherCatV1.12B45,2013-05-09 02:08:00,
2013-05-08 19:13:00,73.0,28.3,29.97,SW,229,0.0,0.0,19,0.00,,,0.00,WeatherCatV1.12B45,2013-05-09 02:13:00,
2013-05-08 19:18:00,72.7,28.0,29.97,SSW,206,3.1,3.1,19,0.00,,,0.00,WeatherCatV1.12B45,2013-05-09 02:18:00,
2013-05-08 19:23:00,72.5,27.9,29.97,SW,218,2.2,2.2,19,0.00,,,0.00,WeatherCatV1.12B45,2013-05-09 02:23:00,
2013-05-08 19:28:00,72.0,27.5,29.97,SW,236,2.7,3.6,19,0.00,,,0.00,WeatherCatV1.12B45,2013-05-09 02:28:00,
2013-05-08 19:33:00,71.8,29.7,29.97,SW,224,3.1,3.6,21,0.00,,,0.00,WeatherCatV1.12B45,2013-05-09 02:33:00,
2013-05-08 19:38:00,71.6,29.6,29.97,SW,217,2.2,3.1,21,0.00,,,0.00,WeatherCatV1.12B45,2013-05-09 02:38:00,
2013-05-08 19:43:00,71.6,27.2,29.97,SW,216,2.7,3.1,19,0.00,,,0.00,WeatherCatV1.12B45,2013-05-09 02:43:00,
2013-05-08 19:49:00,71.6,29.6,29.97,SW,222,2.7,3.6,21,0.00,,,0.00,WeatherCatV1.12B45,2013-05-09 02:49:00,
2013-05-08 19:54:00,71.4,27.0,29.97,SW,219,2.2,4.0,19,0.00,,,0.00,WeatherCatV1.12B45,2013-05-09 02:54:00,
2013-05-08 19:59:00,71.2,26.9,29.97,SW,219,2.7,4.0,19,0.00,,,0.00,WeatherCatV1.12B45,2013-05-09 02:59:00,
2013-05-08 20:04:00,70.9,26.6,29.97,SW,227,3.1,3.6,19,0.00,,,0.00,WeatherCatV1.12B45,2013-05-09 03:04:00,
2013-05-08 20:09:00,70.7,30.0,29.97,SW,217,3.1,3.6,22,0.00,,,0.00,WeatherCatV1.12B45,2013-05-09 03:09:00,
2013-05-08 20:14:00,70.3,29.7,29.97,SSW,206,3.1,3.1,22,0.00,,,0.00,WeatherCatV1.12B45,2013-05-09 03:14:00,
2013-05-08 20:19:00,70.0,29.4,29.97,SW,218,3.1,3.6,22,0.00,,,0.00,WeatherCatV1.12B45,2013-05-09 03:19:00,
2013-05-08 20:24:00,69.8,29.2,29.97,SSW,199,4.0,4.0,22,0.00,,,0.00,WeatherCatV1.12B45,2013-05-09 03:24:00,
2013-05-08 20:29:00,69.6,29.1,29.97,SW,214,3.6,4.0,22,0.00,,,0.00,WeatherCatV1.12B45,2013-05-09 03:29:00,
2013-05-08 20:34:00,69.4,28.9,29.97,SW,219,3.6,4.0,22,0.00,,,0.00,WeatherCatV1.12B45,2013-05-09 03:34:00,
2013-05-08 20:39:00,69.3,28.8,29.97,SSW,210,3.1,4.0,22,0.00,,,0.00,WeatherCatV1.12B45,2013-05-09 03:39:00,
2013-05-08 20:44:00,69.3,28.8,29.97,SSW,213,3.6,3.6,22,0.00,,,0.00,WeatherCatV1.12B45,2013-05-09 03:44:00,
2013-05-08 20:49:00,69.3,28.8,29.97,SW,216,3.1,4.0,22,0.00,,,0.00,WeatherCatV1.12B45,2013-05-09 03:49:00,
2013-05-08 20:54:00,69.1,28.6,29.97,SW,219,3.6,4.0,22,0.00,,,0.00,WeatherCatV1.12B45,2013-05-09 03:54:00,
2013-05-08 20:59:00,69.1,28.6,29.97,SW,216,4.0,4.0,22,0.00,,,0.00,WeatherCatV1.12B45,2013-05-09 03:59:00,
2013-05-08 21:01:00,68.9,28.5,29.97,SSW,209,3.1,4.0,22,0.00,,,0.00,WeatherCatV1.12B45,2013-05-09 04:01:00,
2013-05-08 21:06:00,68.7,28.3,29.97,SW,222,3.6,4.0,22,0.00,,,0.00,WeatherCatV1.12B45,2013-05-09 04:06:00,
2013-05-08 21:11:00,68.4,28.0,29.97,SW,230,2.7,3.1,22,0.00,,,0.00,WeatherCatV1.12B45,2013-05-09 04:11:00,
2013-05-08 21:16:00,68.2,27.9,29.97,SW,230,0.0,0.0,22,0.00,,,0.00,WeatherCatV1.12B45,2013-05-09 04:16:00,
2013-05-08 21:21:00,68.2,27.9,29.97,SW,229,0.0,0.0,22,0.00,,,0.00,WeatherCatV1.12B45,2013-05-09 04:21:00,
2013-05-08 21:26:00,67.6,28.5,29.97,WSW,243,3.1,3.6,23,0.00,,,0.00,WeatherCatV1.12B45,2013-05-09 04:26:00,
2013-05-08 21:31:00,67.5,28.4,29.97,SW,230,0.0,0.0,23,0.00,,,0.00,WeatherCatV1.12B45,2013-05-09 04:31:00,
2013-05-08 21:36:00,67.5,28.4,30.00,SW,226,2.2,3.1,23,0.00,,,0.00,WeatherCatV1.12B45,2013-05-09 04:36:00,
2013-05-08 21:41:00,67.1,28.1,30.00,SW,230,2.7,3.6,23,0.00,,,0.00,WeatherCatV1.12B45,2013-05-09 04:41:00,
2013-05-08 21:46:00,66.9,27.9,30.00,WSW,239,2.7,3.6,23,0.00,,,0.00,WeatherCatV1.12B45,2013-05-09 04:46:00,
2013-05-08 21:51:00,66.9,27.9,29.97,SW,236,0.0,0.0,23,0.00,,,0.00,WeatherCatV1.12B45,2013-05-09 04:51:00,
2013-05-08 21:56:00,66.7,27.8,29.97,SW,236,0.0,0.0,23,0.00,,,0.00,WeatherCatV1.12B45,2013-05-09 04:56:00,
2013-05-08 22:01:00,66.7,27.8,29.97,SW,236,0.0,0.0,23,0.00,,,0.00,WeatherCatV1.12B45,2013-05-09 05:01:00,
2013-05-08 22:06:00,66.4,27.5,30.00,SW,236,0.0,0.0,23,0.00,,,0.00,WeatherCatV1.12B45,2013-05-09 05:06:00,
2013-05-08 22:11:00,66.0,28.2,30.00,SW,235,0.0,0.0,24,0.00,,,0.00,WeatherCatV1.12B45,2013-05-09 05:11:00,
2013-05-08 22:16:00,65.8,28.0,30.00,SW,232,0.0,0.0,24,0.00,,,0.00,WeatherCatV1.12B45,2013-05-09 05:16:00,
2013-05-08 22:21:00,65.5,27.7,30.00,SW,232,0.0,0.0,24,0.00,,,0.00,WeatherCatV1.12B45,2013-05-09 05:21:00,
2013-05-08 22:26:00,65.5,27.7,30.00,SW,232,0.0,0.0,24,0.00,,,0.00,WeatherCatV1.12B45,2013-05-09 05:26:00,
2013-05-08 22:31:00,65.1,27.4,30.00,SW,232,0.0,0.0,24,0.00,,,0.00,WeatherCatV1.12B45,2013-05-09 05:31:00,
2013-05-08 22:36:00,64.9,27.3,30.00,SW,232,0.0,0.0,24,0.00,,,0.00,WeatherCatV1.12B45,2013-05-09 05:36:00,
2013-05-08 22:41:00,64.8,28.1,30.00,SW,232,0.0,0.0,25,0.00,,,0.00,WeatherCatV1.12B45,2013-05-09 05:41:00,
2013-05-08 22:46:00,64.6,28.0,30.00,SW,232,0.0,0.0,25,0.00,,,0.00,WeatherCatV1.12B45,2013-05-09 05:46:00,
2013-05-08 22:51:00,64.9,28.3,30.00,SW,230,0.0,0.0,25,0.00,,,0.00,WeatherCatV1.12B45,2013-05-09 05:51:00,
2013-05-08 22:56:00,64.9,28.3,30.00,SW,235,0.0,0.0,25,0.00,,,0.00,WeatherCatV1.12B45,2013-05-09 05:56:00,
2013-05-08 23:01:00,64.8,28.1,30.00,SW,235,0.0,0.0,25,0.00,,,0.00,WeatherCatV1.12B45,2013-05-09 06:01:00,
2013-05-08 23:06:00,64.9,28.3,30.00,SW,235,0.0,0.0,25,0.00,,,0.00,WeatherCatV1.12B45,2013-05-09 06:06:00,
2013-05-08 23:11:00,64.8,28.1,30.00,SW,235,0.0,0.0,25,0.00,,,0.00,WeatherCatV1.12B45,2013-05-09 06:11:00,
2013-05-08 23:16:00,64.4,27.8,30.00,SW,235,0.0,0.0,25,0.00,,,0.00,WeatherCatV1.12B45,2013-05-09 06:16:00,
2013-05-08 23:21:00,64.0,28.5,30.00,SW,235,0.0,0.0,26,0.00,,,0.00,WeatherCatV1.12B45,2013-05-09 06:21:00,
2013-05-08 23:26:00,63.5,28.0,30.00,SW,235,0.0,0.0,26,0.00,,,0.00,WeatherCatV1.12B45,2013-05-09 06:26:00,
2013-05-08 23:31:00,63.1,27.7,30.00,SW,235,0.0,0.0,26,0.00,,,0.00,WeatherCatV1.12B45,2013-05-09 06:31:00,
2013-05-08 23:36:00,63.1,27.7,30.00,SW,233,0.0,0.0,26,0.00,,,0.00,WeatherCatV1.12B45,2013-05-09 06:36:00,
2013-05-08 23:41:00,62.8,28.3,30.00,SSW,192,0.0,0.0,27,0.00,,,0.00,WeatherCatV1.12B45,2013-05-09 06:41:00,
2013-05-08 23:46:00,62.6,28.2,30.00,SSW,192,0.0,0.0,27,0.00,,,0.00,WeatherCatV1.12B45,2013-05-09 06:46:00,
2013-05-08 23:51:00,62.6,28.2,30.00,SSW,192,0.0,0.0,27,0.00,,,0.00,WeatherCatV1.12B45,2013-05-09 06:51:00,
2013-05-08 23:56:00,62.6,28.2,30.00,WSW,251,0.0,3.1,27,0.00,,,0.00,WeatherCatV1.12B45,2013-05-09 06:56:00,